createdAt,value
2022-08-07T00:00:55.705Z,1.60
2022-08-07T00:03:28.223Z,1.55
2022-08-07T00:06:08.193Z,1.40
2022-08-07T00:08:37.374Z,1.63
2022-08-07T00:11:13.779Z,1.58
2022-08-07T00:13:48.149Z,1.30
2022-08-07T00:16:17.522Z,1.25
2022-08-07T00:18:49.884Z,1.40
2022-08-07T00:21:56.634Z,1.48
2022-08-07T00:24:06.792Z,1.58
2022-08-07T00:26:49.520Z,1.17
2022-08-07T00:29:26.604Z,1.35
2022-08-07T00:32:00.166Z,1.30
2022-08-07T00:34:28.744Z,1.70
2022-08-07T00:36:57.680Z,1.25
2022-08-07T00:39:25.642Z,1.40
2022-08-07T00:42:01.742Z,1.50
2022-08-07T00:44:33.170Z,1.20
2022-08-07T00:47:01.717Z,1.48
2022-08-07T00:50:19.780Z,1.52
2022-08-07T00:52:20.057Z,1.40
2022-08-07T00:54:53.729Z,1.40
2022-08-07T00:57:25.139Z,1.33
2022-08-07T00:59:54.305Z,1.45
2022-08-07T01:02:28.452Z,1.25
2022-08-07T01:04:59.326Z,1.70
2022-08-07T01:07:29.629Z,1.33
2022-08-07T01:10:05.862Z,1.77
2022-08-07T01:12:53.381Z,1.50
2022-08-07T01:15:35.634Z,1.55
2022-08-07T01:18:17.473Z,1.75
2022-08-07T01:20:59.447Z,1.60
2022-08-07T01:23:38.538Z,1.70
2022-08-07T01:26:12.215Z,1.70
2022-08-07T01:28:46.240Z,1.38
2022-08-07T01:31:27.893Z,1.38
2022-08-07T01:34:10.629Z,1.67
2022-08-07T01:36:44.172Z,1.58
2022-08-07T01:39:20.903Z,1.50
2022-08-07T01:42:36.842Z,1.55
2022-08-07T01:44:48.365Z,1.40
2022-08-07T01:48:20.824Z,1.23
2022-08-07T01:50:09.308Z,1.38
2022-08-07T01:52:49.446Z,1.60
2022-08-07T01:55:27.632Z,1.35
2022-08-07T01:58:05.456Z,1.38
2022-08-07T02:01:10.181Z,1.60
2022-08-07T02:03:50.133Z,1.48
2022-08-07T02:06:31.458Z,1.33
2022-08-07T02:09:06.633Z,1.92
2022-08-07T02:12:02.820Z,1.52
2022-08-07T02:14:36.366Z,1.58
2022-08-07T02:17:24.746Z,1.20
2022-08-07T02:20:05.372Z,1.70
2022-08-07T02:22:41.424Z,1.60
2022-08-07T02:25:18.248Z,1.58
2022-08-07T02:27:59.720Z,1.50
2022-08-07T02:30:30.749Z,1.45
2022-08-07T02:33:09.472Z,1.45
2022-08-07T02:36:29.914Z,1.58
2022-08-07T02:38:36.331Z,1.50
2022-08-07T02:41:07.920Z,1.67
2022-08-07T02:43:43.547Z,1.48
2022-08-07T02:46:20.517Z,1.75
2022-08-07T02:48:54.707Z,1.75
2022-08-07T02:51:42.206Z,1.52
2022-08-07T02:54:16.193Z,1.67
2022-08-07T02:56:47.538Z,1.48
2022-08-07T02:59:24.144Z,1.52
2022-08-07T03:01:58.078Z,1.58
2022-08-07T03:04:31.259Z,1.02
2022-08-07T03:07:07.235Z,1.42
2022-08-07T03:09:43.699Z,1.20
2022-08-07T03:12:21.916Z,1.33
2022-08-07T03:14:56.888Z,1.63
2022-08-07T03:17:25.900Z,1.65
2022-08-07T03:19:59.326Z,1.48
2022-08-07T03:22:30.726Z,1.60
2022-08-07T03:25:00.775Z,1.40
2022-08-07T03:27:58.752Z,1.63
2022-08-07T03:30:26.781Z,1.23
2022-08-07T03:32:58.263Z,1.42
2022-08-07T03:35:43.584Z,1.50
2022-08-07T03:38:21.279Z,1.45
2022-08-07T03:40:53.856Z,1.52
2022-08-07T03:43:26.436Z,1.30
2022-08-07T03:45:56.655Z,1.65
2022-08-07T03:48:29.806Z,1.58
2022-08-07T03:50:59.158Z,1.50
2022-08-07T03:54:15.158Z,1.60
2022-08-07T03:56:33.175Z,1.83
2022-08-07T03:59:12.997Z,1.73
2022-08-07T04:01:50.354Z,1.70
2022-08-07T04:04:23.410Z,1.70
2022-08-07T04:06:55.290Z,1.58
2022-08-07T04:09:25.580Z,1.80
2022-08-07T04:12:23.771Z,2.20
2022-08-07T04:14:57.965Z,1.58
2022-08-07T04:18:56.413Z,1.77
2022-08-07T04:20:19.494Z,1.80
2022-08-07T04:22:53.426Z,1.55
2022-08-07T04:25:31.238Z,1.95
2022-08-07T04:28:08.116Z,1.63
2022-08-07T04:30:43.637Z,1.98
2022-08-07T04:33:28.199Z,1.75
2022-08-07T04:35:57.856Z,1.70
2022-08-07T04:38:28.923Z,1.48
2022-08-07T04:40:58.496Z,1.35
2022-08-07T04:44:12.498Z,1.88
2022-08-07T04:46:40.026Z,1.95
2022-08-07T04:49:38.423Z,2.50
2022-08-07T04:52:15.387Z,2.28
2022-08-07T04:54:58.522Z,1.60
2022-08-07T04:58:12.100Z,1.60
2022-08-07T05:00:32.435Z,1.65
2022-08-07T05:03:31.125Z,1.67
2022-08-07T05:06:03.341Z,1.80
2022-08-07T05:09:02.178Z,1.30
2022-08-07T05:11:57.087Z,1.90
2022-08-07T05:14:52.045Z,1.60
2022-08-07T05:17:52.095Z,1.63
2022-08-07T05:20:14.530Z,1.67
2022-08-07T05:22:50.625Z,1.60
2022-08-07T05:25:37.420Z,1.52
2022-08-07T05:28:20.503Z,1.65
2022-08-07T05:30:52.394Z,1.52
2022-08-07T05:33:22.436Z,1.75
2022-08-07T05:35:52.681Z,1.88
2022-08-07T05:39:00.168Z,1.80
2022-08-07T05:41:14.557Z,1.50
2022-08-07T05:44:07.791Z,1.98
2022-08-07T05:46:40.320Z,1.60
2022-08-07T05:49:13.071Z,1.80
2022-08-07T05:51:47.132Z,1.50
2022-08-07T05:54:44.555Z,1.40
2022-08-07T05:57:10.834Z,1.52
2022-08-07T05:59:57.142Z,1.42
2022-08-07T06:02:32.030Z,1.45
2022-08-07T06:05:10.912Z,1.30
2022-08-07T06:08:13.498Z,1.30
2022-08-07T06:10:36.327Z,1.20
2022-08-07T06:13:06.029Z,1.50
2022-08-07T06:15:42.977Z,1.40
2022-08-07T06:18:20.800Z,1.20
2022-08-07T06:22:14.979Z,0.90
2022-08-07T06:24:38.526Z,1.20
2022-08-07T06:26:29.536Z,1.80
2022-08-07T06:29:01.111Z,1.63
2022-08-07T06:31:46.832Z,1.65
2022-08-07T06:34:20.813Z,1.60
2022-08-07T06:36:52.021Z,1.45
2022-08-07T06:40:12.955Z,1.48
2022-08-07T06:42:19.132Z,1.30
2022-08-07T06:45:11.531Z,1.00
2022-08-07T06:47:57.086Z,1.00
2022-08-07T06:50:30.659Z,1.17
2022-08-07T06:53:04.353Z,1.08
2022-08-07T06:55:54.129Z,1.08
2022-08-07T06:58:27.551Z,0.75
2022-08-07T07:01:03.491Z,0.70
2022-08-07T07:03:47.492Z,1.00
2022-08-07T07:06:24.006Z,0.70
2022-08-07T07:08:57.036Z,0.85
2022-08-07T07:12:09.646Z,0.90
2022-08-07T07:14:17.329Z,0.93
2022-08-07T07:16:50.607Z,0.77
2022-08-07T07:19:56.001Z,0.75
2022-08-07T07:22:34.198Z,0.88
2022-08-07T07:25:14.260Z,0.85
2022-08-07T07:27:58.460Z,0.80
2022-08-07T07:30:38.307Z,0.85
2022-08-07T07:33:11.642Z,0.80
2022-08-07T07:35:51.884Z,0.77
2022-08-07T07:38:33.540Z,0.82
2022-08-07T07:41:05.971Z,0.80
2022-08-07T07:43:47.842Z,0.70
2022-08-07T07:46:54.463Z,0.70
2022-08-07T07:50:33.101Z,0.50
2022-08-07T07:52:16.823Z,0.50
2022-08-07T07:54:51.133Z,0.43
2022-08-07T07:57:50.440Z,0.50
2022-08-07T08:00:20.682Z,0.50
2022-08-07T08:03:05.354Z,0.52
2022-08-07T08:05:51.157Z,0.60
2022-08-07T08:08:34.373Z,0.88
2022-08-07T08:11:16.600Z,0.52
2022-08-07T08:13:53.827Z,0.40
2022-08-07T08:16:29.890Z,0.52
2022-08-07T08:19:17.476Z,0.70
2022-08-07T08:22:07.864Z,0.52
2022-08-07T08:25:09.356Z,0.60
2022-08-07T08:27:56.028Z,0.50
2022-08-07T08:30:27.972Z,0.50
2022-08-07T08:33:10.620Z,0.77
2022-08-07T08:35:50.077Z,1.00
2022-08-07T08:38:29.324Z,0.75
2022-08-07T08:41:06.219Z,0.95
2022-08-07T08:43:56.155Z,0.77
2022-08-07T08:46:38.135Z,0.65
2022-08-07T08:49:14.095Z,0.70
2022-08-07T08:52:14.128Z,0.80
2022-08-07T08:54:48.054Z,1.05
2022-08-07T08:57:33.867Z,1.30
2022-08-07T09:00:07.514Z,0.80
2022-08-07T09:02:46.222Z,0.93
2022-08-07T09:05:37.723Z,1.20
2022-08-07T09:08:32.863Z,0.93
2022-08-07T09:11:14.075Z,1.38
2022-08-07T09:14:06.113Z,1.08
2022-08-07T09:16:45.690Z,1.00
2022-08-07T09:19:51.821Z,0.95
2022-08-07T09:24:33.528Z,0.90
2022-08-07T09:25:40.115Z,1.00
2022-08-07T09:30:01.924Z,1.02
2022-08-07T09:31:07.457Z,1.10
2022-08-07T09:33:57.915Z,1.08
2022-08-07T09:36:35.711Z,0.77
2022-08-07T09:39:55.125Z,0.80
2022-08-07T09:42:34.987Z,0.60
2022-08-07T09:47:25.075Z,0.90
2022-08-07T09:48:15.118Z,0.70
2022-08-07T09:50:59.407Z,0.80
2022-08-07T09:53:40.816Z,0.82
2022-08-07T09:56:37.527Z,0.85
2022-08-07T09:59:29.443Z,1.00
2022-08-07T10:02:34.665Z,0.80
2022-08-07T10:05:58.083Z,0.93
2022-08-07T10:08:49.663Z,0.90
2022-08-07T10:12:01.555Z,1.00
2022-08-07T10:14:55.462Z,0.77
2022-08-07T10:18:11.877Z,1.23
2022-08-07T10:20:50.200Z,0.90
2022-08-07T10:24:05.410Z,0.77
2022-08-07T10:26:52.966Z,0.88
2022-08-07T10:29:51.608Z,1.00
2022-08-07T10:32:53.261Z,0.88
2022-08-07T10:35:55.869Z,0.90
2022-08-07T10:38:35.846Z,0.80
2022-08-07T10:41:15.992Z,0.70
2022-08-07T10:44:12.144Z,0.65
2022-08-07T10:46:52.866Z,0.70
2022-08-07T10:49:49.218Z,0.52
2022-08-07T10:52:22.621Z,0.60
2022-08-07T10:55:27.050Z,0.60
2022-08-07T10:58:14.519Z,1.00
2022-08-07T11:00:55.997Z,0.60
2022-08-07T11:03:37.419Z,1.08
2022-08-07T11:06:22.939Z,0.70
2022-08-07T11:09:02.659Z,0.80
2022-08-07T11:11:35.858Z,0.60
2022-08-07T11:14:45.906Z,1.23
2022-08-07T11:17:09.188Z,0.80
2022-08-07T11:19:43.477Z,1.02
2022-08-07T11:22:32.237Z,0.80
2022-08-07T11:25:15.376Z,1.30
2022-08-07T11:28:02.925Z,0.60
2022-08-07T11:30:42.694Z,1.08
2022-08-07T11:33:53.860Z,0.70
2022-08-07T11:36:30.963Z,0.80
2022-08-07T11:39:09.328Z,0.70
2022-08-07T11:42:02.051Z,0.70
2022-08-07T11:44:52.416Z,1.00
2022-08-07T11:48:18.063Z,0.70
2022-08-07T11:51:10.028Z,0.60
2022-08-07T11:54:00.559Z,0.90
2022-08-07T11:56:53.061Z,0.68
2022-08-07T12:00:11.412Z,0.70
2022-08-07T12:03:07.941Z,0.77
2022-08-07T12:06:37.801Z,0.80
2022-08-07T12:09:07.390Z,0.65
2022-08-07T12:12:08.794Z,0.63
2022-08-07T12:14:32.089Z,0.70
2022-08-07T12:17:08.655Z,0.70
2022-08-07T12:20:03.322Z,0.88
2022-08-07T12:22:56.219Z,0.60
2022-08-07T12:26:02.999Z,0.60
2022-08-07T12:28:53.330Z,0.60
2022-08-07T12:31:53.303Z,0.73
2022-08-07T12:34:25.884Z,0.60
2022-08-07T12:36:55.589Z,0.70
2022-08-07T12:39:43.905Z,0.80
2022-08-07T12:42:18.744Z,0.60
2022-08-07T12:44:57.361Z,0.68
2022-08-07T12:47:33.732Z,0.60
2022-08-07T12:50:33.713Z,0.50
2022-08-07T12:54:23.762Z,0.70
2022-08-07T12:56:27.399Z,0.80
2022-08-07T12:58:59.514Z,0.60
2022-08-07T13:01:42.946Z,0.82
2022-08-07T13:04:34.164Z,0.75
2022-08-07T13:08:12.229Z,0.68
2022-08-07T13:10:52.003Z,0.95
2022-08-07T13:13:50.107Z,0.70
2022-08-07T13:16:28.069Z,0.63
2022-08-07T13:19:18.233Z,0.65
2022-08-07T13:22:06.139Z,0.93
2022-08-07T13:24:53.882Z,0.70
2022-08-07T13:28:06.309Z,0.60
2022-08-07T13:30:40.981Z,0.60
2022-08-07T13:33:16.374Z,0.60
2022-08-07T13:36:06.665Z,0.70
2022-08-07T13:38:41.909Z,0.55
2022-08-07T13:41:21.641Z,0.70
2022-08-07T13:43:56.151Z,0.63
2022-08-07T13:46:33.791Z,0.63
2022-08-07T13:49:08.724Z,0.40
2022-08-07T13:52:04.520Z,0.60
2022-08-07T13:54:33.558Z,0.70
2022-08-07T13:57:03.808Z,0.70
2022-08-07T13:59:34.511Z,0.52
2022-08-07T14:02:13.164Z,0.80
2022-08-07T14:04:50.118Z,0.50
2022-08-07T14:07:25.591Z,0.55
2022-08-07T14:10:01.210Z,0.50
2022-08-07T14:12:41.619Z,0.65
2022-08-07T14:15:23.782Z,0.90
2022-08-07T14:18:24.468Z,0.73
2022-08-07T14:20:54.389Z,0.70
2022-08-07T14:24:00.910Z,0.73
2022-08-07T14:26:28.045Z,0.60
2022-08-07T14:29:08.555Z,0.60
2022-08-07T14:31:42.298Z,0.70
2022-08-07T14:34:20.231Z,0.50
2022-08-07T14:36:56.353Z,0.68
2022-08-07T14:40:17.170Z,0.82
2022-08-07T14:42:19.688Z,0.60
2022-08-07T14:44:54.635Z,0.98
2022-08-07T14:47:33.767Z,0.70
2022-08-07T14:50:11.372Z,0.70
2022-08-07T14:52:42.615Z,0.60
2022-08-07T14:55:17.519Z,0.50
2022-08-07T14:58:06.269Z,0.52
2022-08-07T15:00:35.802Z,0.52
2022-08-07T15:03:19.519Z,0.70
2022-08-07T15:05:55.169Z,0.52
2022-08-07T15:08:34.830Z,0.63
2022-08-07T15:14:10.734Z,0.70
2022-08-07T15:16:42.657Z,0.88
2022-08-07T15:20:31.216Z,0.50
2022-08-07T15:22:29.102Z,0.50
2022-08-07T15:28:33.124Z,0.52
2022-08-07T15:31:05.218Z,0.50
2022-08-07T15:33:42.674Z,0.47
2022-08-07T15:36:13.457Z,0.73
2022-08-07T15:44:24.032Z,0.60
2022-08-07T15:46:58.709Z,0.50
2022-08-07T15:50:04.840Z,0.50
2022-08-07T15:52:30.491Z,0.50
2022-08-07T15:55:02.663Z,0.60
2022-08-07T15:57:39.994Z,0.50
2022-08-07T16:00:22.762Z,0.50
2022-08-07T16:03:04.681Z,0.50
2022-08-07T16:05:34.061Z,0.50
2022-08-07T16:08:31.292Z,0.70
2022-08-07T16:11:26.214Z,0.50
2022-08-07T16:14:03.239Z,0.60
2022-08-07T16:16:57.539Z,0.65
2022-08-07T16:19:59.686Z,0.40
2022-08-07T16:22:54.265Z,0.50
2022-08-07T16:25:54.070Z,0.40
2022-08-07T16:30:07.878Z,0.50
2022-08-07T16:31:50.392Z,0.50
2022-08-07T16:34:25.191Z,0.70
2022-08-07T16:38:04.730Z,0.65
2022-08-07T16:40:23.448Z,0.70
2022-08-07T16:43:10.036Z,0.47
2022-08-07T16:46:33.016Z,0.60
2022-08-07T16:50:20.353Z,0.50
2022-08-07T16:52:59.682Z,1.02
2022-08-07T16:55:43.737Z,0.50
2022-08-07T16:58:27.467Z,0.52
2022-08-07T17:01:15.684Z,0.60
2022-08-07T17:03:59.842Z,0.50
2022-08-07T17:06:57.986Z,0.88
2022-08-07T17:10:07.887Z,0.60
2022-08-07T17:12:38.812Z,0.70
2022-08-07T17:15:23.245Z,0.73
2022-08-07T17:18:18.357Z,1.25
2022-08-07T17:20:47.665Z,1.73
2022-08-07T17:23:40.991Z,3.25
2022-08-07T17:26:23.571Z,5.15
2022-08-07T17:29:18.328Z,6.65
2022-08-07T17:32:30.548Z,6.68
2022-08-07T17:35:50.458Z,4.80
2022-08-07T17:38:05.589Z,3.40
2022-08-07T17:40:50.725Z,1.75
2022-08-07T17:44:01.538Z,1.05
2022-08-07T17:46:22.722Z,0.88
2022-08-07T17:49:24.159Z,1.10
2022-08-07T17:52:00.583Z,0.80
2022-08-07T17:54:53.129Z,0.65
2022-08-07T17:57:55.988Z,0.93
2022-08-07T18:00:33.223Z,0.75
2022-08-07T18:03:11.333Z,0.90
2022-08-07T18:06:01.717Z,0.60
2022-08-07T18:08:34.930Z,0.80
2022-08-07T18:12:06.194Z,1.13
2022-08-07T18:14:06.102Z,0.88
2022-08-07T18:16:59.625Z,0.70
2022-08-07T18:21:09.470Z,0.70
2022-08-07T18:22:33.979Z,0.95
2022-08-07T18:25:19.421Z,0.73
2022-08-07T18:28:34.460Z,0.93
2022-08-07T18:31:07.546Z,1.15
2022-08-07T18:34:40.761Z,1.00
2022-08-07T18:37:11.019Z,0.70
2022-08-07T18:40:06.483Z,0.80
2022-08-07T18:42:47.987Z,0.90
2022-08-07T18:45:44.994Z,0.60
2022-08-07T18:50:04.712Z,0.90
2022-08-07T18:52:25.607Z,3.33
2022-08-07T18:54:30.684Z,2.88
2022-08-07T18:57:40.031Z,1.30
2022-08-07T19:00:32.890Z,1.00
2022-08-07T19:03:11.944Z,2.72
2022-08-07T19:06:02.837Z,1.48
2022-08-07T19:08:46.339Z,1.75
2022-08-07T19:11:35.330Z,1.17
2022-08-07T19:14:16.803Z,0.88
2022-08-07T19:17:07.595Z,0.90
2022-08-07T19:19:48.671Z,0.80
2022-08-07T19:22:31.052Z,0.80
2022-08-07T19:25:05.519Z,0.90
2022-08-07T19:28:57.599Z,0.80
2022-08-07T19:31:04.152Z,0.82
2022-08-07T19:33:35.269Z,0.82
2022-08-07T19:36:08.899Z,0.60
2022-08-07T19:38:52.543Z,0.90
2022-08-07T19:41:44.327Z,0.70
2022-08-07T19:44:21.389Z,0.90
2022-08-07T19:46:55.706Z,0.70
2022-08-07T19:49:58.431Z,1.00
2022-08-07T19:52:22.484Z,0.90
2022-08-07T19:54:55.779Z,0.98
2022-08-07T19:58:01.619Z,1.17
2022-08-07T20:00:28.402Z,0.95
2022-08-07T20:03:34.076Z,0.80
2022-08-07T20:06:05.207Z,0.85
2022-08-07T20:08:37.041Z,0.82
2022-08-07T20:11:10.363Z,0.65
2022-08-07T20:13:44.291Z,0.90
2022-08-07T20:16:35.404Z,0.98
2022-08-07T20:19:10.595Z,0.80
2022-08-07T20:21:42.212Z,0.80
2022-08-07T20:24:20.698Z,0.88
2022-08-07T20:26:54.641Z,0.60
2022-08-07T20:29:48.702Z,1.05
2022-08-07T20:32:25.421Z,0.80
2022-08-07T20:34:58.908Z,0.85
2022-08-07T20:37:33.810Z,0.90
2022-08-07T20:40:32.229Z,0.80
2022-08-07T20:42:57.874Z,0.80
2022-08-07T20:45:33.052Z,0.70
2022-08-07T20:48:28.372Z,0.93
2022-08-07T20:51:02.483Z,0.60
2022-08-07T20:54:04.131Z,0.80
2022-08-07T20:56:26.419Z,0.60
2022-08-07T20:58:58.671Z,0.68
2022-08-07T21:01:29.826Z,0.70
2022-08-07T21:04:22.526Z,0.70
2022-08-07T21:06:56.912Z,0.68
2022-08-07T21:09:35.421Z,0.60
2022-08-07T21:12:28.730Z,0.70
2022-08-07T21:14:59.575Z,0.60
2022-08-07T21:18:02.417Z,0.80
2022-08-07T21:20:29.753Z,0.70
2022-08-07T21:23:08.019Z,1.00
2022-08-07T21:25:56.222Z,0.80
2022-08-07T21:28:48.388Z,0.77
2022-08-07T21:31:50.115Z,0.70
2022-08-07T21:34:21.381Z,0.82
2022-08-07T21:37:05.012Z,0.77
2022-08-07T21:39:48.560Z,0.77
2022-08-07T21:42:48.022Z,0.80
2022-08-07T21:46:04.885Z,0.52
2022-08-07T21:48:28.668Z,0.90
2022-08-07T21:51:19.858Z,0.70
2022-08-07T21:53:54.366Z,0.63
2022-08-07T21:56:39.738Z,0.73
2022-08-07T21:59:19.108Z,0.85
2022-08-07T22:02:11.074Z,0.85
2022-08-07T22:04:52.582Z,0.80
2022-08-07T22:07:42.774Z,0.70
2022-08-07T22:10:19.884Z,0.75
2022-08-07T22:12:54.544Z,0.70
2022-08-07T22:16:41.850Z,0.77
2022-08-07T22:18:24.730Z,0.65
2022-08-07T22:21:01.652Z,0.90
2022-08-07T22:23:40.491Z,0.70
2022-08-07T22:26:24.125Z,0.60
2022-08-07T22:29:01.116Z,0.85
2022-08-07T22:31:56.435Z,0.70
2022-08-07T22:34:38.595Z,0.50
2022-08-07T22:37:17.948Z,0.85
2022-08-07T22:39:53.986Z,0.90
2022-08-07T22:42:29.300Z,0.70
2022-08-07T22:45:04.317Z,0.70
2022-08-07T22:48:13.752Z,0.80
2022-08-07T22:51:22.736Z,0.77
2022-08-07T22:54:09.417Z,0.70
2022-08-07T22:56:53.351Z,0.80
2022-08-07T22:59:49.763Z,0.98
2022-08-07T23:02:38.235Z,0.70
2022-08-07T23:06:09.166Z,1.00
2022-08-07T23:08:55.739Z,0.60
2022-08-07T23:11:41.561Z,0.52
2022-08-07T23:14:36.552Z,0.80
2022-08-07T23:17:22.045Z,0.63
2022-08-07T23:20:40.211Z,0.60
2022-08-07T23:24:06.956Z,0.70
2022-08-07T23:26:26.111Z,0.47
2022-08-07T23:29:17.110Z,0.52
2022-08-07T23:34:20.774Z,0.70
2022-08-07T23:35:14.393Z,0.52
2022-08-07T23:38:42.222Z,0.70
2022-08-07T23:41:22.458Z,0.60
2022-08-07T23:44:19.209Z,0.60
2022-08-07T23:47:18.671Z,0.55
2022-08-07T23:50:24.382Z,0.70
2022-08-07T23:53:06.669Z,0.80
2022-08-07T23:55:51.809Z,0.68
2022-08-07T23:58:27.278Z,0.52
